Time;durP1;ratioP1;P1;durP2;ratioP2;P2;SDS_P1;SDS_P2;PMS_P1;PMS_P2;Temp;Humidity;BMP_temperature;BMP_pressure;BME280_temperature;BME280_humidity;BME280_pressure;Samples;Min_cycle;Max_cycle;Signal;HPM_P1;HPM_P2
2022/04/10 00:02:14;;;;;;;0.35;0.30;;;;;;;5.01;64.17;101968.50;4996427;28;117023;-34
2022/04/10 00:04:39;;;;;;;0.30;0.20;;;;;;;4.99;64.43;101965.84;4996750;28;97802;-34
2022/04/10 00:07:05;;;;;;;0.63;0.35;;;;;;;5.01;64.66;101960.44;4994285;28;110903;-34
2022/04/10 00:09:30;;;;;;;0.20;0.20;;;;;;;5.00;63.84;101962.22;4996184;28;116610;-34
2022/04/10 00:11:55;;;;;;;0.77;0.30;;;;;;;5.05;64.04;101975.56;4996565;28;97817;-34
2022/04/10 00:14:20;;;;;;;4.47;0.40;;;;;;;5.04;64.46;101977.34;4996068;28;110131;-34
2022/04/10 00:16:46;;;;;;;0.80;0.20;;;;;;;5.01;64.06;101969.38;4996101;28;117576;-34
2022/04/10 00:19:11;;;;;;;0.35;0.32;;;;;;;4.97;64.65;101962.28;4995851;28;116000;-34
2022/04/10 00:21:36;;;;;;;0.88;0.30;;;;;;;4.97;64.83;101961.41;4996546;28;97899;-34
2022/04/10 00:24:02;;;;;;;0.08;0.08;;;;;;;4.97;64.89;101967.66;4996095;28;113783;-34
2022/04/10 00:26:27;;;;;;;0.40;0.20;;;;;;;4.94;64.88;101965.03;4995259;28;97334;-34
2022/04/10 00:28:53;;;;;;;0.25;0.13;;;;;;;4.93;65.14;101968.63;4996582;28;96804;-34
2022/04/10 00:31:18;;;;;;;0.10;0.00;;;;;;;4.83;64.92;101950.94;4995848;28;97852;-34
2022/04/10 00:33:44;;;;;;;0.00;0.00;;;;;;;4.85;64.81;101957.16;4995836;28;97812;-34
2022/04/10 00:36:09;;;;;;;0.55;0.13;;;;;;;4.75;64.99;101950.22;4996332;28;96531;-34
2022/04/10 00:38:35;;;;;;;0.00;0.00;;;;;;;4.78;64.86;101959.09;4996294;28;96823;-34
2022/04/10 00:41:00;;;;;;;0.43;0.40;;;;;;;4.68;65.12;101944.97;4995922;28;99704;-34
2022/04/10 00:43:32;;;;;;;0.30;0.28;;;;;;;4.72;65.40;101955.63;4994620;28;100998;-34
2022/04/10 00:45:58;;;;;;;0.10;0.10;;;;;;;4.58;65.88;101951.44;4996172;28;96526;-34
2022/04/10 00:48:23;;;;;;;0.00;0.00;;;;;;;4.62;65.59;101954.94;4996861;28;96747;-34
2022/04/10 00:53:32;;;;;;;0.15;0.15;;;;;;;4.49;65.89;101959.66;4993290;28;97007;-34
2022/04/10 00:55:58;;;;;;;0.00;0.00;;;;;;;4.36;66.34;101953.63;4995201;28;100828;-34
2022/04/10 00:58:24;;;;;;;1.35;0.30;;;;;;;4.31;66.61;101949.25;4995905;28;96822;-34
2022/04/10 01:00:49;;;;;;;0.00;0.00;;;;;;;4.34;66.59;101942.03;4995766;28;98003;-34
2022/04/10 01:03:14;;;;;;;0.13;0.13;;;;;;;4.33;66.44;101950.97;4995928;28;97800;-34
2022/04/10 01:05:42;;;;;;;0.98;0.20;;;;;;;4.31;66.76;101955.47;4995912;28;96619;-34
2022/04/10 01:08:08;;;;;;;2.40;0.10;;;;;;;4.31;66.58;101954.59;4994056;28;96916;-34
2022/04/10 01:10:33;;;;;;;0.38;0.32;;;;;;;4.31;66.03;101952.81;4995686;28;100241;-34
2022/04/10 01:13:00;;;;;;;0.00;0.00;;;;;;;4.28;66.54;101952.88;4996070;28;97707;-34
2022/04/10 01:15:25;;;;;;;0.15;0.08;;;;;;;4.20;66.35;101947.66;4994381;28;96625;-34
2022/04/10 01:17:51;;;;;;;0.03;0.03;;;;;;;4.23;67.00;101960.09;4995717;28;96905;-34
2022/04/10 01:20:17;;;;;;;0.13;0.10;;;;;;;4.18;67.33;101959.31;4994976;28;98075;-34
2022/04/10 01:22:43;;;;;;;0.32;0.30;;;;;;;4.15;67.69;101951.31;4994094;28;100697;-34
2022/04/10 01:25:09;;;;;;;0.10;0.10;;;;;;;4.14;67.81;101963.81;4994480;28;96752;-34
2022/04/10 01:27:39;;;;;;;0.00;0.00;;;;;;;4.11;67.26;101969.25;4995852;28;96836;-34
2022/04/10 01:30:07;;;;;;;0.93;0.20;;;;;;;4.06;67.60;101963.09;4993911;28;100514;-34
2022/04/10 01:32:32;;;;;;;1.10;0.20;;;;;;;4.04;67.55;101968.44;4993776;28;102331;-34
2022/04/10 01:35:00;;;;;;;1.25;0.35;;;;;;;4.09;66.76;101973.75;4995794;28;96614;-34
2022/04/10 01:37:27;;;;;;;0.55;0.30;;;;;;;4.02;66.71;101954.19;4995921;28;96994;-34
2022/04/10 01:39:52;;;;;;;0.00;0.00;;;;;;;4.08;66.86;101958.59;4977182;28;100374;-34
2022/04/10 01:42:17;;;;;;;0.10;0.10;;;;;;;4.02;67.02;101962.22;4992777;28;127002;-34
2022/04/10 01:44:43;;;;;;;0.55;0.17;;;;;;;4.07;67.46;101967.53;4994280;28;114088;-34
2022/04/10 01:47:09;;;;;;;5.93;0.20;;;;;;;4.00;66.97;101964.09;4994379;28;96760;-34
2022/04/10 01:49:35;;;;;;;1.40;0.15;;;;;;;4.03;67.03;101977.44;4993331;28;100982;-34
2022/04/10 01:52:00;;;;;;;0.00;0.00;;;;;;;4.00;67.44;101981.94;4993408;28;100800;-34
2022/04/10 01:54:25;;;;;;;0.17;0.10;;;;;;;3.99;67.30;101985.53;4995125;28;97450;-34
2022/04/10 01:56:51;;;;;;;0.17;0.13;;;;;;;3.97;67.15;101984.66;4994345;28;116567;-34
2022/04/10 01:59:16;;;;;;;0.43;0.35;;;;;;;3.97;67.30;101987.34;4993728;28;127695;-34
2022/04/10 02:01:41;;;;;;;0.05;0.05;;;;;;;3.90;67.84;101975.84;4995321;28;98371;-34
2022/04/10 02:04:07;;;;;;;0.05;0.05;;;;;;;3.95;67.44;101990.03;4994251;28;115714;-34
2022/04/10 02:06:34;;;;;;;0.47;0.17;;;;;;;3.91;67.53;101984.75;4994866;28;96796;-34
2022/04/10 02:09:00;;;;;;;0.10;0.10;;;;;;;3.90;67.38;101981.19;4992572;28;100931;-34
2022/04/10 02:11:25;;;;;;;0.85;0.22;;;;;;;3.83;67.52;101977.72;4994604;28;109607;-34
2022/04/10 02:13:50;;;;;;;0.20;0.13;;;;;;;3.87;67.95;101981.25;4995036;28;96664;-34
2022/04/10 02:16:18;;;;;;;0.05;0.05;;;;;;;3.87;67.17;101983.94;4994764;28;96902;-34
2022/04/10 02:18:43;;;;;;;0.00;0.00;;;;;;;3.82;67.46;101985.81;4993108;28;101000;-34
2022/04/10 02:21:09;;;;;;;0.20;0.15;;;;;;;3.89;66.80;101989.28;4994652;28;97303;-34
2022/04/10 02:23:35;;;;;;;0.00;0.00;;;;;;;3.90;67.31;101989.25;4993545;28;96743;-34
2022/04/10 02:26:01;;;;;;;0.00;0.00;;;;;;;3.85;67.30;101977.72;4993792;28;96953;-34
2022/04/10 02:28:26;;;;;;;0.70;0.30;;;;;;;3.81;66.87;101965.25;4994303;28;99014;-34
2022/04/10 02:30:51;;;;;;;0.00;0.00;;;;;;;3.88;67.59;101990.16;4994500;28;97737;-34
2022/04/10 02:33:17;;;;;;;1.00;0.60;;;;;;;3.86;67.26;101998.22;4994013;28;97861;-34
2022/04/10 02:35:43;;;;;;;0.35;0.25;;;;;;;3.89;67.31;101998.19;4994758;28;96865;-34
2022/04/10 02:38:08;;;;;;;1.15;0.10;;;;;;;3.87;67.60;101994.66;4992871;28;100967;-34
2022/04/10 02:40:34;;;;;;;0.00;0.00;;;;;;;3.86;67.93;101997.34;4994615;28;98031;-34
2022/04/10 02:42:59;;;;;;;8.60;0.73;;;;;;;3.82;67.44;101992.03;4994716;28;96554;-34
2022/04/10 02:45:25;;;;;;;0.38;0.20;;;;;;;3.86;67.73;101994.66;4993999;28;114078;-34
2022/04/10 02:47:50;;;;;;;0.10;0.10;;;;;;;3.76;67.94;101981.41;4994493;28;97553;-34
2022/04/10 02:50:15;;;;;;;0.47;0.32;;;;;;;3.77;67.49;101976.94;4994869;28;97824;-34
2022/04/10 02:52:41;;;;;;;0.03;0.03;;;;;;;3.83;68.11;101995.59;4994661;28;96574;-34
2022/04/10 02:55:07;;;;;;;0.47;0.30;;;;;;;3.84;67.49;101994.72;4994273;28;96827;-34
2022/04/10 02:57:33;;;;;;;0.20;0.20;;;;;;;3.82;68.04;101994.72;4993394;28;101721;-34
2022/04/10 02:59:59;;;;;;;0.15;0.08;;;;;;;3.80;67.55;101984.94;4997803;28;97445;-34
2022/04/10 03:02:24;;;;;;;0.63;0.10;;;;;;;3.84;68.67;101994.72;4997891;28;96759;-34
2022/04/10 03:04:49;;;;;;;0.10;0.10;;;;;;;3.82;68.47;101989.38;4997751;28;96804;-34
2022/04/10 03:07:15;;;;;;;0.05;0.05;;;;;;;3.77;68.41;101996.59;4996422;28;115909;-34
2022/04/10 03:09:41;;;;;;;0.00;0.00;;;;;;;3.76;68.34;101994.78;4997329;28;99306;-34
2022/04/10 03:12:08;;;;;;;0.08;0.08;;;;;;;3.79;68.80;102004.59;4997642;28;96531;-34
2022/04/10 03:14:34;;;;;;;0.10;0.10;;;;;;;3.75;68.03;102002.88;4996808;28;96783;-34
2022/04/10 03:16:59;;;;;;;0.60;0.20;;;;;;;3.79;69.11;102010.84;4997250;28;97928;-34
2022/04/10 03:19:24;;;;;;;0.17;0.10;;;;;;;3.77;69.04;102009.09;4997442;28;97847;-34
2022/04/10 03:21:49;;;;;;;0.10;0.10;;;;;;;3.77;67.89;102009.09;4997277;28;96597;-34
2022/04/10 03:24:15;;;;;;;0.15;0.15;;;;;;;3.74;67.96;101995.72;4996797;28;117369;-34
2022/04/10 03:26:40;;;;;;;2.50;0.50;;;;;;;3.75;68.63;102009.13;4996431;28;125368;-34
2022/04/10 03:29:05;;;;;;;0.00;0.00;;;;;;;3.81;68.90;102022.44;4996059;28;127774;-34
2022/04/10 03:31:31;;;;;;;0.08;0.08;;;;;;;3.79;68.20;102013.53;4997233;28;96804;-34
2022/04/10 03:33:56;;;;;;;0.98;0.30;;;;;;;3.73;68.57;102016.28;4997019;28;105948;-34
2022/04/10 03:36:21;;;;;;;0.30;0.25;;;;;;;3.79;68.53;102026.03;4996226;28;123883;-34
2022/04/10 03:38:46;;;;;;;0.00;0.00;;;;;;;3.70;68.54;102013.66;4996170;28;127865;-34
2022/04/10 03:41:12;;;;;;;3.50;0.32;;;;;;;3.73;68.85;102018.97;4996448;28;116996;-34
2022/04/10 03:43:37;;;;;;;0.20;0.20;;;;;;;3.66;69.19;102013.72;4996645;28;116987;-34
2022/04/10 03:46:02;;;;;;;4.15;0.13;;;;;;;3.64;68.32;102012.84;4996140;28;99883;-34
2022/04/10 03:48:28;;;;;;;0.25;0.20;;;;;;;3.63;68.81;102020.00;4997069;28;97881;-34
2022/04/10 03:50:54;;;;;;;0.00;0.00;;;;;;;3.60;68.97;102015.59;4995930;28;96537;-34
2022/04/10 03:53:19;;;;;;;0.20;0.10;;;;;;;3.64;68.48;102018.22;4997198;28;96819;-34
2022/04/10 03:55:45;;;;;;;0.70;0.35;;;;;;;3.58;69.08;102012.03;4997033;28;97329;-34
2022/04/10 03:58:10;;;;;;;0.00;0.00;;;;;;;3.57;69.06;102010.25;4996592;28;99367;-34
2022/04/10 04:00:35;;;;;;;0.00;0.00;;;;;;;3.57;69.45;102020.97;4996753;28;99210;-34
2022/04/10 04:03:01;;;;;;;0.03;0.03;;;;;;;3.55;69.50;102027.25;4996530;28;115385;-34
2022/04/10 04:05:26;;;;;;;0.65;0.20;;;;;;;3.56;69.58;102034.41;4996520;28;99267;-34
2022/04/10 04:07:52;;;;;;;0.10;0.10;;;;;;;3.52;69.71;102038.91;4995660;28;99156;-34
2022/04/10 04:10:17;;;;;;;0.22;0.17;;;;;;;3.49;69.59;102032.72;4994961;28;109074;-34
2022/04/10 04:12:42;;;;;;;0.43;0.32;;;;;;;3.47;68.90;102034.53;4995922;28;117345;-34
2022/04/10 04:15:08;;;;;;;2.10;0.13;;;;;;;3.40;69.23;102017.63;4995561;28;127005;-34
2022/04/10 04:17:33;;;;;;;0.22;0.20;;;;;;;3.44;69.98;102030.09;4996186;28;99941;-34
2022/04/10 04:20:01;;;;;;;0.10;0.10;;;;;;;3.42;69.79;102031.03;4995971;28;116873;-34
2022/04/10 04:22:26;;;;;;;2.83;0.28;;;;;;;3.47;69.87;102045.22;4995248;28;96788;-34
2022/04/10 04:24:51;;;;;;;0.00;0.00;;;;;;;3.46;69.72;102051.50;4996598;28;97959;-34
2022/04/10 04:27:16;;;;;;;0.55;0.55;;;;;;;3.44;70.53;102047.97;4995957;28;127298;-34
2022/04/10 04:29:42;;;;;;;0.38;0.25;;;;;;;3.37;70.08;102045.34;4995598;28;116991;-34
2022/04/10 04:32:07;;;;;;;0.00;0.00;;;;;;;3.40;69.75;102045.28;4996441;28;96910;-34
2022/04/10 04:34:33;;;;;;;0.98;0.43;;;;;;;3.37;69.94;102049.81;4994329;28;101071;-34
2022/04/10 04:36:58;;;;;;;0.80;0.38;;;;;;;3.44;69.31;102050.63;4995335;28;127099;-34
2022/04/10 04:39:23;;;;;;;1.20;0.55;;;;;;;3.45;69.36;102050.59;4995815;28;110752;-34
2022/04/10 04:41:49;;;;;;;0.00;0.00;;;;;;;3.49;69.67;102062.19;4996596;28;96789;-34
2022/04/10 04:44:14;;;;;;;0.00;0.00;;;;;;;3.50;69.82;102061.25;4995771;28;102610;-34
2022/04/10 04:46:40;;;;;;;0.15;0.13;;;;;;;3.45;69.78;102057.75;4995661;28;99571;-34
2022/04/10 04:49:05;;;;;;;0.45;0.22;;;;;;;3.40;69.84;102065.84;4996180;28;96641;-34
2022/04/10 04:51:34;;;;;;;0.00;0.00;;;;;;;3.36;70.42;102056.97;4996913;28;96781;-34
2022/04/10 04:54:01;;;;;;;0.45;0.30;;;;;;;3.35;69.56;102065.91;4995819;28;97995;-34
2022/04/10 04:56:26;;;;;;;0.55;0.47;;;;;;;3.39;70.22;102077.47;4995375;28;99419;-34
2022/04/10 04:58:52;;;;;;;0.55;0.28;;;;;;;3.33;70.59;102066.81;4995373;28;98701;-34
2022/04/10 05:01:17;;;;;;;0.68;0.30;;;;;;;3.30;70.42;102070.41;4995705;28;96851;-34
2022/04/10 05:03:42;;;;;;;0.32;0.30;;;;;;;3.33;71.31;102083.75;4995773;28;97952;-34
2022/04/10 05:06:08;;;;;;;0.03;0.00;;;;;;;3.27;70.32;102074.94;4995019;28;118498;-34
2022/04/10 05:08:33;;;;;;;0.20;0.20;;;;;;;3.28;70.37;102076.69;4994964;28;117093;-34
2022/04/10 05:10:59;;;;;;;0.00;0.00;;;;;;;3.33;70.95;102086.44;4995718;28;96905;-34
2022/04/10 05:13:25;;;;;;;0.90;0.43;;;;;;;3.29;70.30;102092.75;4993972;28;101083;-34
2022/04/10 05:15:50;;;;;;;2.00;0.45;;;;;;;3.31;70.39;102092.72;4995939;28;97243;-34
2022/04/10 05:18:17;;;;;;;0.10;0.10;;;;;;;3.25;70.45;102085.66;4995822;28;96714;-34
2022/04/10 05:20:43;;;;;;;0.22;0.10;;;;;;;3.22;71.13;102090.16;4995779;28;96721;-34
2022/04/10 05:23:09;;;;;;;0.30;0.20;;;;;;;3.22;70.79;102088.38;4995041;28;97773;-34
2022/04/10 05:25:36;;;;;;;0.00;0.00;;;;;;;3.25;70.99;102093.69;4995455;28;99134;-34
2022/04/10 05:28:01;;;;;;;0.00;0.00;;;;;;;3.29;70.18;102099.88;4995647;28;96488;-34
2022/04/10 05:30:27;;;;;;;0.08;0.00;;;;;;;3.27;69.81;102099.91;4995584;28;96807;-34
2022/04/10 05:32:52;;;;;;;0.10;0.10;;;;;;;3.30;70.34;102099.88;4994406;28;122594;-34
2022/04/10 05:35:17;;;;;;;0.47;0.32;;;;;;;3.37;69.92;102103.38;4994323;28;126877;-34
2022/04/10 05:37:42;;;;;;;0.00;0.00;;;;;;;3.38;69.87;102116.75;4995015;28;105104;-34
2022/04/10 05:40:08;;;;;;;0.75;0.45;;;;;;;3.41;69.41;102115.84;4995068;28;115172;-34
2022/04/10 05:42:44;;;;;;;1.45;0.75;;;;;;;3.44;69.58;102109.56;4994892;28;99716;-34
2022/04/10 05:45:10;;;;;;;0.43;0.30;;;;;;;3.46;69.45;102107.75;4993725;28;100784;-34
2022/04/10 05:47:36;;;;;;;0.15;0.08;;;;;;;3.48;69.33;102117.53;4993499;28;96539;-34
2022/04/10 05:50:03;;;;;;;0.32;0.20;;;;;;;3.56;68.75;102120.13;4995181;28;96781;-34
2022/04/10 05:52:28;;;;;;;0.15;0.15;;;;;;;3.60;68.94;102127.22;4993601;28;100775;-34
2022/04/10 05:54:59;;;;;;;0.00;0.00;;;;;;;3.60;69.05;102116.50;4994667;28;97612;-34
2022/04/10 05:57:25;;;;;;;0.00;0.00;;;;;;;3.69;68.86;102132.44;4993730;28;96527;-34
2022/04/10 05:59:51;;;;;;;0.98;0.43;;;;;;;3.72;68.95;102132.44;4993924;28;96642;-34
2022/04/10 06:02:16;;;;;;;0.03;0.03;;;;;;;3.74;68.59;102116.31;4994921;28;97998;-34
2022/04/10 06:04:41;;;;;;;1.00;0.45;;;;;;;3.84;68.66;102126.03;4993848;28;98959;-34
2022/04/10 06:07:07;;;;;;;0.90;0.70;;;;;;;3.94;68.49;102133.03;4993295;28;116580;-34
2022/04/10 06:09:33;;;;;;;1.50;0.38;;;;;;;4.00;67.97;102129.38;4993785;28;96700;-34
2022/04/10 06:11:58;;;;;;;0.60;0.25;;;;;;;4.09;68.15;102137.28;4992866;28;128184;-34
2022/04/10 06:14:23;;;;;;;0.10;0.10;;;;;;;4.28;67.79;102147.75;4994524;28;98596;-34
2022/04/10 06:16:49;;;;;;;4.95;0.22;;;;;;;4.38;67.91;102144.03;4993478;28;96635;-34
2022/04/10 06:19:16;;;;;;;0.47;0.30;;;;;;;4.49;67.67;102150.13;4995146;28;96769;-34
2022/04/10 06:21:41;;;;;;;0.75;0.45;;;;;;;4.59;67.01;102156.25;4994545;28;99773;-34
2022/04/10 06:24:07;;;;;;;0.40;0.28;;;;;;;4.65;67.37;102142.72;4994737;28;97882;-34
2022/04/10 06:26:32;;;;;;;1.15;0.52;;;;;;;4.84;66.98;102151.38;4994636;28;96696;-34
2022/04/10 06:28:58;;;;;;;0.13;0.08;;;;;;;4.93;67.04;102148.50;4994829;28;98952;-34
2022/04/10 06:31:24;;;;;;;0.55;0.10;;;;;;;5.06;66.97;102149.19;4994277;28;99006;-34
2022/04/10 06:33:50;;;;;;;0.40;0.28;;;;;;;5.27;65.96;102153.31;4993156;28;122637;-34
2022/04/10 06:36:16;;;;;;;0.10;0.10;;;;;;;5.47;65.75;102150.22;4992866;28;96634;-34
2022/04/10 06:38:41;;;;;;;0.75;0.52;;;;;;;5.60;65.97;102157.16;4994520;28;96925;-34
2022/04/10 06:41:06;;;;;;;0.52;0.20;;;;;;;5.83;65.42;102163.84;4994372;28;97861;-34
2022/04/10 06:43:32;;;;;;;1.23;0.50;;;;;;;5.98;65.29;102173.41;4993346;28;126659;-34
2022/04/10 06:45:57;;;;;;;0.57;0.38;;;;;;;6.05;64.69;102165.19;4994800;28;96481;-34
2022/04/10 06:48:22;;;;;;;0.30;0.30;;;;;;;6.29;64.74;102170.94;4994496;28;96815;-34
2022/04/10 06:50:48;;;;;;;0.20;0.20;;;;;;;6.47;64.17;102172.34;4993663;28;114488;-34
2022/04/10 06:53:13;;;;;;;7.28;0.52;;;;;;;6.55;63.92;102165.88;4994606;28;97760;-34
2022/04/10 06:55:39;;;;;;;1.00;0.22;;;;;;;6.78;63.82;102168.00;4994116;28;96705;-34
2022/04/10 06:58:05;;;;;;;1.17;0.50;;;;;;;6.87;63.40;102168.72;4993491;28;116359;-34
2022/04/10 07:00:31;;;;;;;0.30;0.30;;;;;;;7.02;63.23;102161.09;4992287;28;99196;-34
2022/04/10 07:02:57;;;;;;;0.82;0.52;;;;;;;7.29;62.65;102173.91;4992767;28;100732;-34
2022/04/10 07:05:22;;;;;;;0.50;0.30;;;;;;;7.43;62.23;102175.28;4994516;28;96450;-34
2022/04/10 07:07:47;;;;;;;0.55;0.30;;;;;;;7.58;62.01;102174.00;4993626;28;96909;-34
2022/04/10 07:10:13;;;;;;;0.00;0.00;;;;;;;7.81;61.70;102180.56;4993497;28;108395;-34
2022/04/10 07:12:38;;;;;;;2.30;0.57;;;;;;;7.85;60.91;102174.16;4993794;28;98814;-34
2022/04/10 07:15:04;;;;;;;1.35;0.50;;;;;;;7.98;60.95;102169.28;4993652;28;108354;-34
2022/04/10 07:17:32;;;;;;;1.40;0.65;;;;;;;8.13;60.35;102176.03;4994858;28;96880;-34
2022/04/10 07:19:57;;;;;;;2.17;0.40;;;;;;;8.24;60.47;102174.78;4993928;28;97911;-34
2022/04/10 07:25:07;;;;;;;1.13;0.30;;;;;;;8.74;59.91;102184.06;4993104;28;97110;-34
2022/04/10 07:27:32;;;;;;;1.52;0.60;;;;;;;8.83;59.06;102183.78;4994218;28;96774;-34
2022/04/10 07:29:57;;;;;;;0.65;0.40;;;;;;;8.88;59.51;102179.97;4993008;28;120577;-34
2022/04/10 07:32:22;;;;;;;0.50;0.20;;;;;;;8.86;59.52;102187.25;4992703;28;126886;-34
2022/04/10 07:34:48;;;;;;;0.98;0.68;;;;;;;8.88;59.30;102185.38;4992933;28;118602;-34
2022/04/10 07:37:13;;;;;;;1.25;0.55;;;;;;;9.09;58.58;102197.31;4993680;28;106394;-34
2022/04/10 07:39:39;;;;;;;0.40;0.30;;;;;;;9.14;58.92;102189.03;4993978;28;97241;-34
2022/04/10 07:42:04;;;;;;;0.90;0.40;;;;;;;9.12;58.87;102199.91;4994054;28;97377;-34
2022/04/10 07:44:29;;;;;;;0.38;0.30;;;;;;;9.11;58.66;102205.38;4994809;28;96596;-34
2022/04/10 07:49:38;;;;;;;0.98;0.38;;;;;;;8.64;60.05;102227.59;4996724;28;97117;-34
2022/04/10 07:52:04;;;;;;;2.85;0.75;;;;;;;8.54;60.71;102218.00;4996513;28;99109;-34
2022/04/10 07:54:29;;;;;;;0.50;0.30;;;;;;;8.46;60.30;102222.75;4997355;28;96831;-34
2022/04/10 07:56:54;;;;;;;0.30;0.10;;;;;;;8.46;60.84;102230.84;4997034;28;96573;-34
2022/04/10 07:59:20;;;;;;;0.30;0.20;;;;;;;8.32;60.90;102236.66;4996264;28;117364;-34
2022/04/10 08:01:45;;;;;;;0.25;0.13;;;;;;;8.21;61.16;102241.47;4996848;28;97733;-34
2022/04/10 08:04:11;;;;;;;1.17;0.38;;;;;;;8.08;61.29;102246.34;4997079;28;96614;-34
2022/04/10 08:06:36;;;;;;;0.52;0.30;;;;;;;8.08;61.55;102247.22;4995795;28;116256;-34
2022/04/10 08:09:01;;;;;;;0.03;0.03;;;;;;;8.50;60.55;102244.22;4993868;28;127056;-34
2022/04/10 08:11:27;;;;;;;0.30;0.20;;;;;;;8.95;59.79;102234.72;4996709;28;97855;-34
2022/04/10 08:13:52;;;;;;;0.45;0.38;;;;;;;9.45;59.13;102247.47;4996292;28;96501;-34
2022/04/10 08:16:17;;;;;;;0.65;0.32;;;;;;;9.68;57.91;102228.63;4994959;28;105443;-34
2022/04/10 08:18:42;;;;;;;4.65;0.20;;;;;;;9.66;57.74;102235.91;4996664;28;97952;-34
2022/04/10 08:21:08;;;;;;;1.58;0.40;;;;;;;9.95;57.94;102244.81;4996131;28;104877;-34
2022/04/10 08:23:34;;;;;;;0.60;0.20;;;;;;;10.28;57.00;102240.00;4996510;28;96463;-34
2022/04/10 08:25:59;;;;;;;0.63;0.43;;;;;;;10.59;56.17;102234.28;4995188;28;96891;-34
2022/04/10 08:28:25;;;;;;;2.15;0.57;;;;;;;10.77;55.48;102239.91;4996421;28;97889;-34
2022/04/10 08:30:51;;;;;;;0.25;0.08;;;;;;;10.53;54.20;102231.78;4996735;28;97737;-34
2022/04/10 08:33:16;;;;;;;0.10;0.10;;;;;;;10.30;53.75;102245.38;4996455;28;96569;-34
2022/04/10 08:35:41;;;;;;;1.88;0.40;;;;;;;10.37;54.81;102255.03;4996286;28;96937;-34
2022/04/10 08:38:07;;;;;;;0.70;0.10;;;;;;;10.58;51.64;102247.88;4995346;28;101012;-34
2022/04/10 08:40:32;;;;;;;0.32;0.15;;;;;;;10.76;53.06;102248.97;4996041;28;98907;-34
2022/04/10 08:43:00;;;;;;;0.30;0.10;;;;;;;11.01;53.66;102257.00;4996517;28;96628;-34
2022/04/10 08:45:26;;;;;;;0.10;0.00;;;;;;;11.08;52.60;102249.50;4994929;28;96869;-34
2022/04/10 08:47:52;;;;;;;2.63;0.10;;;;;;;11.29;52.83;102256.75;4996166;28;97866;-34
2022/04/10 08:50:18;;;;;;;0.15;0.10;;;;;;;11.44;51.52;102252.50;4994302;28;100707;-34
2022/04/10 08:52:45;;;;;;;1.10;0.38;;;;;;;11.56;51.63;102234.81;4993226;28;96783;-34
2022/04/10 08:55:10;;;;;;;1.70;0.47;;;;;;;11.84;51.80;102250.75;4992545;28;97221;-34
2022/04/10 08:57:35;;;;;;;0.10;0.10;;;;;;;12.07;50.74;102253.38;4993850;28;97271;-34
2022/04/10 09:00:01;;;;;;;1.67;0.68;;;;;;;12.13;51.06;102238.63;4995575;28;99184;-34
2022/04/10 09:02:26;;;;;;;0.40;0.25;;;;;;;12.21;48.67;102244.59;4994157;28;110713;-33
2022/04/10 09:04:51;;;;;;;1.15;0.38;;;;;;;11.90;50.56;102245.97;4994474;28;97011;-34
2022/04/10 09:07:17;;;;;;;0.30;0.10;;;;;;;11.42;51.76;102246.28;4995041;28;97924;-34
2022/04/10 09:09:54;;;;;;;2.38;0.88;;;;;;;10.99;50.76;102245.34;4995420;28;104160;-34
2022/04/10 09:12:20;;;;;;;0.50;0.30;;;;;;;11.00;51.98;102256.13;4994433;28;96646;-33
2022/04/10 09:14:45;;;;;;;1.67;0.28;;;;;;;11.33;51.10;102255.66;4992528;28;97014;-34
2022/04/10 09:17:19;;;;;;;0.22;0.10;;;;;;;11.47;49.25;102260.53;4993741;28;98464;-34
2022/04/10 09:19:46;;;;;;;0.32;0.22;;;;;;;11.77;50.09;102263.72;4993389;28;100711;-34
2022/04/10 09:22:30;;;;;;;0.28;0.17;;;;;;;12.20;48.57;102258.25;4994169;28;96916;-34
2022/04/10 09:25:16;;;;;;;4.57;0.50;;;;;;;12.50;49.22;102258.66;4994906;28;96781;-34
2022/04/10 09:27:42;;;;;;;3.40;0.20;;;;;;;12.78;47.42;102255.50;4993007;28;100809;-34
2022/04/10 09:30:10;;;;;;;0.82;0.22;;;;;;;12.88;47.58;102251.38;4994583;28;99607;-34
2022/04/10 09:32:41;;;;;;;1.20;0.32;;;;;;;13.32;46.23;102245.63;4993773;28;96715;-34
2022/04/10 09:35:07;;;;;;;1.13;0.32;;;;;;;13.59;46.79;102253.34;4995154;28;96994;-34
2022/04/10 09:37:47;;;;;;;0.50;0.30;;;;;;;13.67;45.83;102251.06;4993548;28;102172;-34
2022/04/10 09:40:33;;;;;;;0.82;0.32;;;;;;;14.00;45.57;102258.44;4993579;28;100748;-34
2022/04/10 09:43:12;;;;;;;0.65;0.30;;;;;;;14.08;45.01;102244.41;4995345;28;96608;-34
2022/04/10 09:45:40;;;;;;;0.55;0.13;;;;;;;14.34;44.38;102246.56;4994514;28;96761;-34
2022/04/10 09:48:31;;;;;;;2.35;0.30;;;;;;;14.41;44.17;102266.22;4994804;28;99650;-34
2022/04/10 09:50:58;;;;;;;1.00;0.20;;;;;;;14.19;45.65;102250.16;4995076;28;99633;-34
2022/04/10 09:53:26;;;;;;;1.48;0.22;;;;;;;14.41;44.75;102255.31;4993236;28;96699;-34
2022/04/10 09:55:57;;;;;;;2.85;0.43;;;;;;;14.70;41.91;102256.44;4993668;28;96806;-34
2022/04/10 09:58:22;;;;;;;1.50;0.40;;;;;;;14.82;43.08;102258.47;4994810;28;99579;-34
2022/04/10 10:00:53;;;;;;;0.80;0.20;;;;;;;14.78;43.05;102251.44;4994756;28;99034;-34
2022/04/10 10:03:20;;;;;;;0.10;0.05;;;;;;;15.06;44.49;102249.84;4995141;28;96593;-34
2022/04/10 10:05:46;;;;;;;0.98;0.32;;;;;;;15.28;43.61;102252.22;4993708;28;96902;-34
2022/04/10 10:08:12;;;;;;;0.95;0.25;;;;;;;15.41;42.83;102245.03;4993106;28;99679;-34
2022/04/10 10:10:38;;;;;;;0.25;0.25;;;;;;;15.51;41.89;102253.56;4993663;28;101346;-34
2022/04/10 10:13:06;;;;;;;0.82;0.50;;;;;;;15.70;40.75;102254.22;4993507;28;96647;-34
2022/04/10 10:15:36;;;;;;;3.17;0.50;;;;;;;15.87;43.18;102242.31;4976953;28;96911;-34
2022/04/10 10:18:05;;;;;;;0.82;0.32;;;;;;;16.20;41.12;102248.47;4994016;28;99955;-34
2022/04/10 10:20:32;;;;;;;1.02;0.45;;;;;;;16.29;41.08;102247.91;4993163;28;102271;-34
2022/04/10 10:23:00;;;;;;;0.50;0.30;;;;;;;16.11;41.43;102249.94;4993489;28;96602;-34
2022/04/10 10:25:55;;;;;;;2.28;0.35;;;;;;;15.46;41.14;102248.38;4993392;28;96868;-34
2022/04/10 10:28:41;;;;;;;2.50;0.35;;;;;;;15.65;41.03;102252.72;4992828;28;101136;-34
2022/04/10 10:31:20;;;;;;;0.47;0.20;;;;;;;15.21;44.28;102261.72;4993215;28;100998;-34
2022/04/10 10:33:56;;;;;;;0.43;0.30;;;;;;;15.25;38.14;102247.81;4993237;28;96586;-34
2022/04/10 10:36:26;;;;;;;0.10;0.10;;;;;;;15.44;41.30;102254.91;4993643;28;96762;-34
2022/04/10 10:38:54;;;;;;;0.30;0.22;;;;;;;15.72;38.20;102248.69;4993160;28;102090;-34
2022/04/10 10:41:19;;;;;;;4.35;0.30;;;;;;;16.02;42.02;102256.88;4993019;28;100853;-34
2022/04/10 10:43:46;;;;;;;0.60;0.40;;;;;;;16.25;39.64;102257.25;4994063;28;96489;-34
2022/04/10 10:46:26;;;;;;;0.73;0.30;;;;;;;16.34;40.05;102243.00;4994505;28;96901;-34
2022/04/10 10:49:14;;;;;;;0.77;0.20;;;;;;;16.40;37.89;102259.03;4992710;28;101133;-34
2022/04/10 10:51:46;;;;;;;0.63;0.40;;;;;;;16.60;38.92;102255.03;4994236;28;97917;-34
2022/04/10 10:54:14;;;;;;;;;;;;;;;16.84;39.22;102254.44;4994833;28;96460;-34
2022/04/10 10:56:43;;;;;;;1.40;0.35;;;;;;;17.09;37.29;102256.41;4994447;28;96903;-34
2022/04/10 10:59:33;;;;;;;0.30;0.30;;;;;;;17.10;37.73;102241.78;4992666;28;101057;-34
2022/04/10 11:02:07;;;;;;;0.10;0.10;;;;;;;17.13;35.92;102247.03;4993039;28;101021;-34
2022/04/10 11:04:42;;;;;;;3.75;0.50;;;;;;;17.14;36.64;102243.31;4993963;28;96705;-33
2022/04/10 11:07:13;;;;;;;0.77;0.40;;;;;;;16.53;32.71;102232.66;4993498;28;96892;-34
2022/04/10 11:09:54;;;;;;;0.27;0.23;;;;;;;16.47;37.20;102249.47;4992236;28;100965;-34
2022/04/10 11:12:22;;;;;;;0.30;0.20;;;;;;;16.38;36.37;102240.97;4992562;28;100872;-34
2022/04/10 11:14:50;;;;;;;1.95;0.50;;;;;;;16.56;38.44;102229.75;4994382;28;96497;-34
2022/04/10 11:17:21;;;;;;;3.47;0.60;;;;;;;16.39;37.95;102237.25;4992759;28;96809;-34
2022/04/10 11:19:48;;;;;;;1.05;0.20;;;;;;;15.67;38.19;102232.53;4995364;28;100964;-34
2022/04/10 11:22:22;;;;;;;1.30;0.30;;;;;;;15.55;37.36;102233.28;4997254;28;99253;-34
2022/04/10 11:24:51;;;;;;;0.52;0.25;;;;;;;15.76;39.26;102227.53;4996287;28;96669;-34
2022/04/10 11:28:00;;;;;;;1.10;0.40;;;;;;;16.13;38.67;102232.44;4996607;28;96869;-34
2022/04/10 11:30:37;;;;;;;0.38;0.20;;;;;;;15.75;33.51;102210.25;4996020;28;99433;-34
2022/04/10 11:33:04;;;;;;;0.65;0.50;;;;;;;15.89;35.45;102209.41;4995708;28;100989;-34
2022/04/10 11:35:30;;;;;;;1.45;0.70;;;;;;;15.62;35.87;102218.28;4995551;28;96633;-34
2022/04/10 11:38:00;;;;;;;3.65;0.45;;;;;;;16.18;37.03;102215.75;4997388;28;96762;-34